Aviation Digital Data Service (ADDS)

Output produced by METARs form (2254 UTC 21 May 2022)
found at http://www.aviationweather.gov/metar/data/
 
UATE 212230Z 24004MPS CAVOK 14/11 Q1013 NOSIG RMK QFE758/1011
TAF UATE 211701Z 2118/2218 24008G14MPS 9999 SCT011 SCT033CB TX19/2209Z
TN12/2202Z 
     TEMPO 2118/2206 3100 -SHRA BR BKN003 BKN015CB
       
UATT 212230Z 29009MPS 9999 BKN009CB 06/05 Q1003 NOSIG RMK QFE732/0977
TAF UATT 211704Z 2118/2218 28007MPS 9999 SCT020CB TX12/2212Z TN02/2119Z 
     TEMPO 2118/2201 27012MPS 3100 -SHRA BR BKN006 BKN015CB 
     TEMPO 2201/2204 3100 BR BKN007 
     BECMG 2207/2209 22007MPS BKN015 
     TEMPO 2213/2218 15010MPS 3100 -SHRA BR BKN007 BKN020CB
       
UAAA 212230Z 11002MPS 040V140 9999 SCT100 15/13 Q1006 NOSIG
TAF UAAA 211700Z 2118/2218 18003MPS 9999 BKN030CB OVC100 TX21/2209Z TN14/2201Z 
     TEMPO 2118/2203 22003G08MPS 3100 -SHRA 
     BECMG 2203/2204 22003MPS 6000 -SHRA 
     TEMPO 2205/2215 24008G15MPS 2000 TSRA BR BKN011 OVC020CB 
     TEMPO 2215/2218 28003G08MPS 3100 -SHRA BR BKN020CB OVC100
       
UACC 212230Z 28005MPS CAVOK 12/08 Q0998 NOSIG RMK QFE718/0957
TAF UACC 211704Z 2118/2218 25005MPS 9999 SCT030CB BKN100 TX15/2209Z TN11/2123Z 
     TEMPO 2118/2121 18007G12MPS 3100 -TSRA BKN040CB 
     TEMPO 2121/2204 27008G13MPS 3100 -SHRA BKN020CB 
     BECMG 2204/2206 24012G17MPS 
     TEMPO 2204/2214 25017G22MPS 5000 -SHRA BKN030CB 
     BECMG 2214/2215 25006MPS
       
UATG 212230Z 18003MPS 9999 SCT033CB 06/02 Q1010 NOSIG RMK QFE760/1013
TAF UATG 211700Z 2118/2218 25005MPS 9999 BKN030CB TX17/2212Z TN07/2202Z 
     TEMPO 2118/2124 VRB03MPS 
     BECMG 2200/2202 17007MPS 
     TEMPO 2202/2208 5000 -SHRA BR 
     BECMG 2208/2210 22009G14MPS
       
TAF UAAH 211100Z 2112/2121 22005MPS CAVOK
       
UAKK 212230Z VRB01MPS CAVOK 13/05 Q0998 NOSIG RMK QFE702/0937
TAF UAKK 211701Z 2118/2218 25006MPS 9999 SCT020 BKN100 TX17/2210Z TN02/2124Z 
     TEMPO 2118/2202 VRB15MPS 3100 -TSRA SQ BKN020CB 
     BECMG 2202/2204 24010MPS SCT030CB 
     TEMPO 2202/2206 25015MPS 3100 -SHRA BKN020CB 
     TEMPO 2206/2216 25018MPS -SHRA BKN020CB 
     BECMG 2216/2218 21005MPS
       
UAUU 212230Z 24003MPS CAVOK 03/02 Q0995 NOSIG RMK QFE730/0974
TAF UAUU 212002Z 2121/2206 25003G08MPS 9999 BKN020 
     TEMPO 2121/2203 27005G10MPS 
     BECMG 2203/2204 25006G12MPS
       
TAF UASS 211401Z 2115/2124 10004MPS CAVOK 
     TEMPO 2115/2118 06003MPS 
     TEMPO 2118/2124 VRB01MPS
       
UAII 212230Z 18006MPS 9999 -SHRA BKN046CB 15/14 Q1011 NOSIG RMK QFE721/0962
TAF UAII 211710Z 2118/2218 31006G12MPS 3100 -SHRA BR SCT011 BKN030CB TX24/2210Z
TN13/2201Z 
     TEMPO 2118/2204 VRB11G20MPS 0500 +TSRA BKN003 OVC020CB 
     FM220400 30004G09MPS 6000 -SHRA BKN020CB 
     TEMPO 2204/2212 VRB08MPS 3100 -TSRA BKN015CB 
     BECMG 2212/2213 11003G08MPS
       
UARR 212200Z 28003MPS 8000 NSC 03/00 Q1007 NOSIG RMK QFE752/1002
TAF UARR 212000Z 2121/2206 VRB02MPS 3100 BR SCT011 
     TEMPO 2121/2124 27004MPS 
     TEMPO 2200/2206 21004MPS
       
UASK 212230Z 25003MPS 9999 SCT033CB OVC096 17/10 Q1001 NOSIG RMK QFE726/0968
TAF UASK 212002Z 2121/2206 11003MPS 9999 SCT050 BKN100 
     TEMPO 2121/2203 15003MPS -SHRA BKN021CB 
     TEMPO 2203/2206 VRB13MPS -TSRA BKN021CB
       
TAF UAKD 211102Z 2112/2121 24013MPS 9999 SCT040CB BKN100 
     TEMPO 2112/2115 27013G18MPS 
     TEMPO 2115/2121 26010MPS BKN040CB